sensor_id;sensor_type;location;lat;lon;timestamp;P1;durP1;ratioP1;P2;durP2;ratioP2
82044;SDS011;71615;50.428;8.674;2023-07-20T00:00:26;3.15;;;1.73;;
82044;SDS011;71615;50.428;8.674;2023-07-20T00:02:53;3.50;;;1.60;;
82044;SDS011;71615;50.428;8.674;2023-07-20T00:05:36;3.47;;;1.92;;
82044;SDS011;71615;50.428;8.674;2023-07-20T00:08:02;3.63;;;1.98;;
82044;SDS011;71615;50.428;8.674;2023-07-20T00:10:29;2.63;;;1.52;;
82044;SDS011;71615;50.428;8.674;2023-07-20T00:12:55;4.05;;;2.00;;
82044;SDS011;71615;50.428;8.674;2023-07-20T00:15:22;5.00;;;2.28;;
82044;SDS011;71615;50.428;8.674;2023-07-20T00:17:48;4.32;;;2.30;;
82044;SDS011;71615;50.428;8.674;2023-07-20T00:20:15;3.55;;;2.15;;
82044;SDS011;71615;50.428;8.674;2023-07-20T00:22:41;4.53;;;1.60;;
82044;SDS011;71615;50.428;8.674;2023-07-20T00:25:08;5.18;;;1.70;;
82044;SDS011;71615;50.428;8.674;2023-07-20T00:27:35;4.57;;;2.22;;
82044;SDS011;71615;50.428;8.674;2023-07-20T00:30:02;3.97;;;2.15;;
82044;SDS011;71615;50.428;8.674;2023-07-20T00:32:30;3.13;;;1.90;;
82044;SDS011;71615;50.428;8.674;2023-07-20T00:34:56;3.42;;;1.98;;
82044;SDS011;71615;50.428;8.674;2023-07-20T00:37:23;3.97;;;1.77;;
82044;SDS011;71615;50.428;8.674;2023-07-20T00:39:50;4.07;;;2.45;;
82044;SDS011;71615;50.428;8.674;2023-07-20T00:42:17;2.88;;;1.70;;
82044;SDS011;71615;50.428;8.674;2023-07-20T00:44:43;3.47;;;2.22;;
82044;SDS011;71615;50.428;8.674;2023-07-20T00:47:10;3.58;;;1.80;;
82044;SDS011;71615;50.428;8.674;2023-07-20T00:49:37;4.95;;;1.73;;
82044;SDS011;71615;50.428;8.674;2023-07-20T00:52:04;3.28;;;2.08;;
82044;SDS011;71615;50.428;8.674;2023-07-20T00:54:33;3.30;;;1.63;;
82044;SDS011;71615;50.428;8.674;2023-07-20T00:57:00;3.33;;;2.08;;
82044;SDS011;71615;50.428;8.674;2023-07-20T00:59:27;4.25;;;2.45;;
82044;SDS011;71615;50.428;8.674;2023-07-20T01:01:54;4.18;;;2.47;;
82044;SDS011;71615;50.428;8.674;2023-07-20T01:04:21;4.78;;;2.15;;
82044;SDS011;71615;50.428;8.674;2023-07-20T01:07:10;3.25;;;2.38;;
82044;SDS011;71615;50.428;8.674;2023-07-20T01:09:47;3.67;;;2.13;;
82044;SDS011;71615;50.428;8.674;2023-07-20T01:12:29;4.78;;;2.00;;
82044;SDS011;71615;50.428;8.674;2023-07-20T01:14:59;3.35;;;2.13;;
82044;SDS011;71615;50.428;8.674;2023-07-20T01:17:26;3.67;;;2.30;;
82044;SDS011;71615;50.428;8.674;2023-07-20T01:19:52;3.72;;;2.53;;
82044;SDS011;71615;50.428;8.674;2023-07-20T01:22:37;5.55;;;2.20;;
82044;SDS011;71615;50.428;8.674;2023-07-20T01:30:59;3.28;;;1.90;;
82044;SDS011;71615;50.428;8.674;2023-07-20T01:33:37;5.75;;;2.03;;
82044;SDS011;71615;50.428;8.674;2023-07-20T01:36:04;4.93;;;2.00;;
82044;SDS011;71615;50.428;8.674;2023-07-20T01:38:31;6.68;;;2.53;;
82044;SDS011;71615;50.428;8.674;2023-07-20T01:40:58;4.65;;;2.00;;
82044;SDS011;71615;50.428;8.674;2023-07-20T01:43:25;4.72;;;2.70;;
82044;SDS011;71615;50.428;8.674;2023-07-20T01:45:51;4.97;;;2.45;;
82044;SDS011;71615;50.428;8.674;2023-07-20T01:48:18;5.25;;;2.65;;
82044;SDS011;71615;50.428;8.674;2023-07-20T01:50:44;5.43;;;2.28;;
82044;SDS011;71615;50.428;8.674;2023-07-20T01:53:11;4.88;;;2.50;;
82044;SDS011;71615;50.428;8.674;2023-07-20T01:55:38;6.00;;;2.83;;
82044;SDS011;71615;50.428;8.674;2023-07-20T01:58:04;5.30;;;2.47;;
82044;SDS011;71615;50.428;8.674;2023-07-20T02:00:32;4.40;;;2.13;;
82044;SDS011;71615;50.428;8.674;2023-07-20T02:02:59;3.63;;;2.03;;
82044;SDS011;71615;50.428;8.674;2023-07-20T02:05:25;3.47;;;1.98;;
82044;SDS011;71615;50.428;8.674;2023-07-20T02:07:52;5.72;;;2.95;;
82044;SDS011;71615;50.428;8.674;2023-07-20T02:10:19;4.80;;;2.17;;
82044;SDS011;71615;50.428;8.674;2023-07-20T02:12:45;6.60;;;2.17;;
82044;SDS011;71615;50.428;8.674;2023-07-20T02:15:12;3.35;;;2.38;;
82044;SDS011;71615;50.428;8.674;2023-07-20T02:17:39;4.75;;;2.40;;
82044;SDS011;71615;50.428;8.674;2023-07-20T02:20:07;4.20;;;2.28;;
82044;SDS011;71615;50.428;8.674;2023-07-20T02:22:36;5.40;;;2.50;;
82044;SDS011;71615;50.428;8.674;2023-07-20T02:25:04;4.90;;;2.40;;
82044;SDS011;71615;50.428;8.674;2023-07-20T02:27:31;5.00;;;2.42;;
82044;SDS011;71615;50.428;8.674;2023-07-20T02:29:57;5.38;;;2.50;;
82044;SDS011;71615;50.428;8.674;2023-07-20T02:32:24;3.70;;;2.08;;
82044;SDS011;71615;50.428;8.674;2023-07-20T02:34:50;4.40;;;2.53;;
82044;SDS011;71615;50.428;8.674;2023-07-20T02:37:17;3.47;;;2.10;;
82044;SDS011;71615;50.428;8.674;2023-07-20T02:39:44;4.45;;;2.22;;
82044;SDS011;71615;50.428;8.674;2023-07-20T02:42:10;3.75;;;1.98;;
82044;SDS011;71615;50.428;8.674;2023-07-20T02:44:37;4.75;;;1.92;;
82044;SDS011;71615;50.428;8.674;2023-07-20T02:47:03;3.58;;;1.67;;
82044;SDS011;71615;50.428;8.674;2023-07-20T02:49:30;4.70;;;2.10;;
82044;SDS011;71615;50.428;8.674;2023-07-20T02:51:57;3.70;;;1.90;;
82044;SDS011;71615;50.428;8.674;2023-07-20T02:54:23;4.15;;;2.00;;
82044;SDS011;71615;50.428;8.674;2023-07-20T02:56:50;4.18;;;2.10;;
82044;SDS011;71615;50.428;8.674;2023-07-20T02:59:16;4.32;;;1.60;;
82044;SDS011;71615;50.428;8.674;2023-07-20T03:01:43;4.80;;;2.00;;
82044;SDS011;71615;50.428;8.674;2023-07-20T03:04:09;4.32;;;2.10;;
82044;SDS011;71615;50.428;8.674;2023-07-20T03:06:36;3.08;;;1.92;;
82044;SDS011;71615;50.428;8.674;2023-07-20T03:09:03;4.40;;;1.88;;
82044;SDS011;71615;50.428;8.674;2023-07-20T03:11:30;3.90;;;1.52;;
82044;SDS011;71615;50.428;8.674;2023-07-20T03:13:56;4.85;;;1.73;;
82044;SDS011;71615;50.428;8.674;2023-07-20T03:16:23;4.88;;;1.83;;
82044;SDS011;71615;50.428;8.674;2023-07-20T03:18:51;3.78;;;1.60;;
82044;SDS011;71615;50.428;8.674;2023-07-20T03:21:18;4.90;;;2.47;;
82044;SDS011;71615;50.428;8.674;2023-07-20T03:23:44;3.22;;;1.73;;
82044;SDS011;71615;50.428;8.674;2023-07-20T03:26:11;3.28;;;1.73;;
82044;SDS011;71615;50.428;8.674;2023-07-20T03:28:38;3.38;;;1.73;;
82044;SDS011;71615;50.428;8.674;2023-07-20T03:31:05;3.60;;;2.00;;
82044;SDS011;71615;50.428;8.674;2023-07-20T03:33:31;2.83;;;1.85;;
82044;SDS011;71615;50.428;8.674;2023-07-20T03:35:58;4.45;;;1.50;;
82044;SDS011;71615;50.428;8.674;2023-07-20T03:38:25;3.67;;;1.92;;
82044;SDS011;71615;50.428;8.674;2023-07-20T03:40:56;2.92;;;1.48;;
82044;SDS011;71615;50.428;8.674;2023-07-20T03:43:23;3.05;;;1.77;;
82044;SDS011;71615;50.428;8.674;2023-07-20T03:45:51;3.83;;;2.53;;
82044;SDS011;71615;50.428;8.674;2023-07-20T03:48:19;4.30;;;2.25;;
82044;SDS011;71615;50.428;8.674;2023-07-20T03:50:46;2.97;;;1.90;;
82044;SDS011;71615;50.428;8.674;2023-07-20T03:53:14;3.63;;;1.42;;
82044;SDS011;71615;50.428;8.674;2023-07-20T03:55:41;2.95;;;1.60;;
82044;SDS011;71615;50.428;8.674;2023-07-20T03:58:11;3.50;;;1.50;;
82044;SDS011;71615;50.428;8.674;2023-07-20T04:00:39;3.13;;;2.03;;
82044;SDS011;71615;50.428;8.674;2023-07-20T04:03:06;4.40;;;1.70;;
82044;SDS011;71615;50.428;8.674;2023-07-20T04:05:33;4.55;;;1.55;;
82044;SDS011;71615;50.428;8.674;2023-07-20T04:07:59;4.25;;;1.67;;
82044;SDS011;71615;50.428;8.674;2023-07-20T04:10:25;3.10;;;1.48;;
82044;SDS011;71615;50.428;8.674;2023-07-20T04:12:52;2.55;;;1.55;;
82044;SDS011;71615;50.428;8.674;2023-07-20T04:15:18;3.13;;;1.85;;
82044;SDS011;71615;50.428;8.674;2023-07-20T04:17:45;3.60;;;1.77;;
82044;SDS011;71615;50.428;8.674;2023-07-20T04:20:12;5.18;;;1.80;;
82044;SDS011;71615;50.428;8.674;2023-07-20T04:22:39;3.47;;;1.40;;
82044;SDS011;71615;50.428;8.674;2023-07-20T04:25:05;3.08;;;1.67;;
82044;SDS011;71615;50.428;8.674;2023-07-20T04:27:33;3.70;;;2.13;;
82044;SDS011;71615;50.428;8.674;2023-07-20T04:29:59;2.88;;;1.75;;
82044;SDS011;71615;50.428;8.674;2023-07-20T04:32:26;2.75;;;1.38;;
82044;SDS011;71615;50.428;8.674;2023-07-20T04:34:52;3.10;;;1.50;;
82044;SDS011;71615;50.428;8.674;2023-07-20T04:37:19;2.45;;;1.30;;
82044;SDS011;71615;50.428;8.674;2023-07-20T04:39:45;4.13;;;2.03;;
82044;SDS011;71615;50.428;8.674;2023-07-20T04:42:12;2.83;;;1.67;;
82044;SDS011;71615;50.428;8.674;2023-07-20T04:44:38;3.30;;;1.52;;
82044;SDS011;71615;50.428;8.674;2023-07-20T04:47:05;2.63;;;1.70;;
82044;SDS011;71615;50.428;8.674;2023-07-20T04:49:31;2.60;;;1.17;;
82044;SDS011;71615;50.428;8.674;2023-07-20T04:51:58;3.80;;;1.70;;
82044;SDS011;71615;50.428;8.674;2023-07-20T04:54:24;2.90;;;1.40;;
82044;SDS011;71615;50.428;8.674;2023-07-20T04:56:53;2.75;;;1.30;;
82044;SDS011;71615;50.428;8.674;2023-07-20T04:59:20;2.65;;;1.23;;
82044;SDS011;71615;50.428;8.674;2023-07-20T05:01:46;3.53;;;1.75;;
82044;SDS011;71615;50.428;8.674;2023-07-20T05:04:13;3.70;;;1.80;;
82044;SDS011;71615;50.428;8.674;2023-07-20T05:06:44;3.70;;;2.00;;
82044;SDS011;71615;50.428;8.674;2023-07-20T05:09:10;4.38;;;1.70;;
82044;SDS011;71615;50.428;8.674;2023-07-20T05:11:37;4.07;;;2.28;;
82044;SDS011;71615;50.428;8.674;2023-07-20T05:14:03;3.22;;;2.10;;
82044;SDS011;71615;50.428;8.674;2023-07-20T05:16:30;3.45;;;1.70;;
82044;SDS011;71615;50.428;8.674;2023-07-20T05:18:56;3.17;;;1.65;;
82044;SDS011;71615;50.428;8.674;2023-07-20T05:21:24;3.17;;;1.70;;
82044;SDS011;71615;50.428;8.674;2023-07-20T05:23:50;3.03;;;1.70;;
82044;SDS011;71615;50.428;8.674;2023-07-20T05:26:17;5.07;;;2.25;;
82044;SDS011;71615;50.428;8.674;2023-07-20T05:28:43;2.58;;;1.27;;
82044;SDS011;71615;50.428;8.674;2023-07-20T05:31:10;2.95;;;1.70;;
82044;SDS011;71615;50.428;8.674;2023-07-20T05:33:36;2.92;;;1.77;;
82044;SDS011;71615;50.428;8.674;2023-07-20T05:36:03;4.85;;;1.80;;
82044;SDS011;71615;50.428;8.674;2023-07-20T05:38:29;5.40;;;2.08;;
82044;SDS011;71615;50.428;8.674;2023-07-20T05:40:59;3.28;;;1.50;;
82044;SDS011;71615;50.428;8.674;2023-07-20T05:43:27;4.60;;;1.70;;
82044;SDS011;71615;50.428;8.674;2023-07-20T05:45:53;3.03;;;2.05;;
82044;SDS011;71615;50.428;8.674;2023-07-20T05:48:20;2.63;;;1.70;;
82044;SDS011;71615;50.428;8.674;2023-07-20T05:50:46;3.33;;;1.50;;
82044;SDS011;71615;50.428;8.674;2023-07-20T05:53:13;4.53;;;2.20;;
82044;SDS011;71615;50.428;8.674;2023-07-20T05:55:39;3.15;;;1.50;;
82044;SDS011;71615;50.428;8.674;2023-07-20T05:58:07;3.80;;;2.00;;
82044;SDS011;71615;50.428;8.674;2023-07-20T06:00:33;2.97;;;1.77;;
82044;SDS011;71615;50.428;8.674;2023-07-20T06:03:00;2.45;;;1.58;;
82044;SDS011;71615;50.428;8.674;2023-07-20T06:05:26;4.90;;;2.00;;
82044;SDS011;71615;50.428;8.674;2023-07-20T06:07:54;4.03;;;1.45;;
82044;SDS011;71615;50.428;8.674;2023-07-20T06:10:21;3.67;;;1.45;;
82044;SDS011;71615;50.428;8.674;2023-07-20T06:12:48;4.63;;;1.70;;
82044;SDS011;71615;50.428;8.674;2023-07-20T06:15:24;3.58;;;1.83;;
82044;SDS011;71615;50.428;8.674;2023-07-20T06:18:09;3.80;;;1.65;;
82044;SDS011;71615;50.428;8.674;2023-07-20T06:20:36;5.05;;;1.55;;
82044;SDS011;71615;50.428;8.674;2023-07-20T06:23:02;2.83;;;1.50;;
82044;SDS011;71615;50.428;8.674;2023-07-20T06:25:29;3.63;;;1.40;;
82044;SDS011;71615;50.428;8.674;2023-07-20T06:27:55;3.00;;;1.55;;
82044;SDS011;71615;50.428;8.674;2023-07-20T06:30:22;3.35;;;1.85;;
82044;SDS011;71615;50.428;8.674;2023-07-20T06:32:49;3.20;;;2.00;;
82044;SDS011;71615;50.428;8.674;2023-07-20T06:35:15;3.40;;;2.17;;
82044;SDS011;71615;50.428;8.674;2023-07-20T06:37:42;4.47;;;2.38;;
82044;SDS011;71615;50.428;8.674;2023-07-20T06:40:08;3.33;;;2.47;;
82044;SDS011;71615;50.428;8.674;2023-07-20T06:42:38;4.32;;;2.25;;
82044;SDS011;71615;50.428;8.674;2023-07-20T06:45:07;2.97;;;2.15;;
82044;SDS011;71615;50.428;8.674;2023-07-20T06:47:35;3.38;;;2.08;;
82044;SDS011;71615;50.428;8.674;2023-07-20T06:50:04;3.50;;;2.50;;
82044;SDS011;71615;50.428;8.674;2023-07-20T06:52:32;4.68;;;2.42;;
82044;SDS011;71615;50.428;8.674;2023-07-20T06:54:59;6.20;;;2.55;;
82044;SDS011;71615;50.428;8.674;2023-07-20T06:57:30;4.30;;;2.65;;
82044;SDS011;71615;50.428;8.674;2023-07-20T06:59:57;3.13;;;2.47;;
82044;SDS011;71615;50.428;8.674;2023-07-20T07:02:23;5.95;;;3.40;;
82044;SDS011;71615;50.428;8.674;2023-07-20T07:04:50;4.97;;;2.95;;
82044;SDS011;71615;50.428;8.674;2023-07-20T07:07:26;5.88;;;2.80;;
82044;SDS011;71615;50.428;8.674;2023-07-20T07:09:53;5.25;;;3.08;;
82044;SDS011;71615;50.428;8.674;2023-07-20T07:12:19;4.38;;;2.83;;
82044;SDS011;71615;50.428;8.674;2023-07-20T07:14:46;5.70;;;3.83;;
82044;SDS011;71615;50.428;8.674;2023-07-20T07:17:12;4.75;;;2.60;;
82044;SDS011;71615;50.428;8.674;2023-07-20T07:19:45;4.63;;;3.30;;
82044;SDS011;71615;50.428;8.674;2023-07-20T07:22:14;4.57;;;2.72;;
82044;SDS011;71615;50.428;8.674;2023-07-20T07:24:41;3.47;;;2.25;;
82044;SDS011;71615;50.428;8.674;2023-07-20T07:27:08;3.90;;;3.10;;
82044;SDS011;71615;50.428;8.674;2023-07-20T07:29:35;5.40;;;3.13;;
82044;SDS011;71615;50.428;8.674;2023-07-20T07:32:01;5.13;;;2.75;;
82044;SDS011;71615;50.428;8.674;2023-07-20T07:34:28;5.53;;;2.50;;
82044;SDS011;71615;50.428;8.674;2023-07-20T07:36:54;4.45;;;2.50;;
82044;SDS011;71615;50.428;8.674;2023-07-20T07:39:21;3.45;;;2.15;;
82044;SDS011;71615;50.428;8.674;2023-07-20T07:41:50;4.38;;;2.20;;
82044;SDS011;71615;50.428;8.674;2023-07-20T07:44:18;5.47;;;3.38;;
82044;SDS011;71615;50.428;8.674;2023-07-20T07:46:44;4.63;;;2.60;;
82044;SDS011;71615;50.428;8.674;2023-07-20T07:49:11;3.42;;;2.50;;
82044;SDS011;71615;50.428;8.674;2023-07-20T07:51:37;4.28;;;2.75;;
82044;SDS011;71615;50.428;8.674;2023-07-20T07:54:04;4.35;;;2.72;;
82044;SDS011;71615;50.428;8.674;2023-07-20T07:56:30;4.03;;;2.10;;
82044;SDS011;71615;50.428;8.674;2023-07-20T07:58:57;3.83;;;2.50;;
82044;SDS011;71615;50.428;8.674;2023-07-20T08:01:24;4.15;;;2.30;;
82044;SDS011;71615;50.428;8.674;2023-07-20T08:03:50;4.15;;;2.88;;
82044;SDS011;71615;50.428;8.674;2023-07-20T08:06:17;4.03;;;2.65;;
82044;SDS011;71615;50.428;8.674;2023-07-20T08:08:44;3.90;;;2.60;;
82044;SDS011;71615;50.428;8.674;2023-07-20T08:11:10;3.58;;;2.50;;
82044;SDS011;71615;50.428;8.674;2023-07-20T08:13:39;4.70;;;2.72;;
82044;SDS011;71615;50.428;8.674;2023-07-20T08:16:05;4.68;;;2.88;;
82044;SDS011;71615;50.428;8.674;2023-07-20T08:18:32;4.10;;;2.55;;
82044;SDS011;71615;50.428;8.674;2023-07-20T08:20:59;4.55;;;2.90;;
82044;SDS011;71615;50.428;8.674;2023-07-20T08:23:25;4.72;;;2.83;;
82044;SDS011;71615;50.428;8.674;2023-07-20T08:25:53;3.90;;;2.60;;
82044;SDS011;71615;50.428;8.674;2023-07-20T08:28:20;3.25;;;2.25;;
82044;SDS011;71615;50.428;8.674;2023-07-20T08:30:47;4.75;;;2.63;;
82044;SDS011;71615;50.428;8.674;2023-07-20T08:33:14;4.90;;;2.75;;
82044;SDS011;71615;50.428;8.674;2023-07-20T08:35:46;3.95;;;2.45;;
82044;SDS011;71615;50.428;8.674;2023-07-20T08:38:13;4.40;;;2.42;;
82044;SDS011;71615;50.428;8.674;2023-07-20T08:40:43;4.00;;;2.47;;
82044;SDS011;71615;50.428;8.674;2023-07-20T08:43:11;3.90;;;2.28;;
82044;SDS011;71615;50.428;8.674;2023-07-20T08:45:38;3.30;;;2.17;;
82044;SDS011;71615;50.428;8.674;2023-07-20T08:48:06;4.38;;;2.38;;
82044;SDS011;71615;50.428;8.674;2023-07-20T08:50:34;4.63;;;2.63;;
82044;SDS011;71615;50.428;8.674;2023-07-20T08:53:01;4.80;;;3.28;;
82044;SDS011;71615;50.428;8.674;2023-07-20T08:55:29;4.40;;;2.45;;
82044;SDS011;71615;50.428;8.674;2023-07-20T08:57:56;4.60;;;2.67;;
82044;SDS011;71615;50.428;8.674;2023-07-20T09:00:24;4.20;;;2.95;;
82044;SDS011;71615;50.428;8.674;2023-07-20T09:02:54;3.72;;;2.90;;
82044;SDS011;71615;50.428;8.674;2023-07-20T09:05:22;4.03;;;2.65;;
82044;SDS011;71615;50.428;8.674;2023-07-20T09:07:52;4.35;;;2.75;;
82044;SDS011;71615;50.428;8.674;2023-07-20T09:10:21;4.05;;;2.50;;
82044;SDS011;71615;50.428;8.674;2023-07-20T09:12:50;4.43;;;2.88;;
82044;SDS011;71615;50.428;8.674;2023-07-20T09:15:17;5.82;;;2.67;;
82044;SDS011;71615;50.428;8.674;2023-07-20T09:17:49;3.83;;;2.22;;
82044;SDS011;71615;50.428;8.674;2023-07-20T09:20:17;3.53;;;2.25;;
82044;SDS011;71615;50.428;8.674;2023-07-20T09:22:47;4.50;;;2.78;;
82044;SDS011;71615;50.428;8.674;2023-07-20T09:25:16;4.40;;;2.30;;
82044;SDS011;71615;50.428;8.674;2023-07-20T09:27:48;5.57;;;2.65;;
82044;SDS011;71615;50.428;8.674;2023-07-20T09:30:17;3.88;;;2.42;;
82044;SDS011;71615;50.428;8.674;2023-07-20T09:32:45;3.42;;;1.90;;
82044;SDS011;71615;50.428;8.674;2023-07-20T09:35:16;3.97;;;2.42;;
82044;SDS011;71615;50.428;8.674;2023-07-20T09:37:47;4.40;;;2.10;;
82044;SDS011;71615;50.428;8.674;2023-07-20T09:40:38;3.97;;;2.28;;
82044;SDS011;71615;50.428;8.674;2023-07-20T09:43:10;3.67;;;1.83;;
82044;SDS011;71615;50.428;8.674;2023-07-20T09:45:40;3.70;;;2.20;;
82044;SDS011;71615;50.428;8.674;2023-07-20T09:48:10;3.45;;;2.13;;
82044;SDS011;71615;50.428;8.674;2023-07-20T09:50:41;3.15;;;1.95;;
82044;SDS011;71615;50.428;8.674;2023-07-20T09:53:11;3.08;;;2.20;;
82044;SDS011;71615;50.428;8.674;2023-07-20T09:55:41;4.13;;;2.53;;
82044;SDS011;71615;50.428;8.674;2023-07-20T09:58:11;3.10;;;2.50;;
82044;SDS011;71615;50.428;8.674;2023-07-20T10:00:38;4.25;;;2.50;;
82044;SDS011;71615;50.428;8.674;2023-07-20T10:03:07;3.65;;;2.80;;
82044;SDS011;71615;50.428;8.674;2023-07-20T10:05:36;4.50;;;2.40;;
82044;SDS011;71615;50.428;8.674;2023-07-20T10:08:07;4.10;;;2.60;;
82044;SDS011;71615;50.428;8.674;2023-07-20T10:10:40;3.53;;;1.90;;
82044;SDS011;71615;50.428;8.674;2023-07-20T10:13:10;3.67;;;2.20;;
82044;SDS011;71615;50.428;8.674;2023-07-20T10:15:50;4.72;;;2.50;;
82044;SDS011;71615;50.428;8.674;2023-07-20T10:20:47;3.88;;;2.13;;
82044;SDS011;71615;50.428;8.674;2023-07-20T10:23:18;4.45;;;1.92;;
82044;SDS011;71615;50.428;8.674;2023-07-20T10:25:45;3.97;;;2.50;;
82044;SDS011;71615;50.428;8.674;2023-07-20T10:28:13;3.60;;;2.30;;
82044;SDS011;71615;50.428;8.674;2023-07-20T10:30:39;3.42;;;2.80;;
82044;SDS011;71615;50.428;8.674;2023-07-20T10:33:06;4.05;;;2.40;;
82044;SDS011;71615;50.428;8.674;2023-07-20T10:35:50;3.35;;;2.58;;
82044;SDS011;71615;50.428;8.674;2023-07-20T10:38:18;4.18;;;2.15;;
82044;SDS011;71615;50.428;8.674;2023-07-20T10:40:53;2.33;;;1.75;;
82044;SDS011;71615;50.428;8.674;2023-07-20T10:43:21;3.20;;;2.22;;
82044;SDS011;71615;50.428;8.674;2023-07-20T10:45:49;4.00;;;2.35;;
82044;SDS011;71615;50.428;8.674;2023-07-20T10:48:17;3.55;;;2.50;;
82044;SDS011;71615;50.428;8.674;2023-07-20T10:51:08;3.50;;;3.17;;
82044;SDS011;71615;50.428;8.674;2023-07-20T10:53:42;3.00;;;2.38;;
82044;SDS011;71615;50.428;8.674;2023-07-20T10:56:12;3.08;;;2.33;;
82044;SDS011;71615;50.428;8.674;2023-07-20T10:58:40;3.25;;;2.03;;
82044;SDS011;71615;50.428;8.674;2023-07-20T11:01:08;3.08;;;2.20;;
82044;SDS011;71615;50.428;8.674;2023-07-20T11:03:42;3.30;;;2.45;;
82044;SDS011;71615;50.428;8.674;2023-07-20T11:09:05;3.10;;;2.00;;
82044;SDS011;71615;50.428;8.674;2023-07-20T11:11:35;2.75;;;1.92;;
82044;SDS011;71615;50.428;8.674;2023-07-20T11:14:03;2.80;;;2.40;;
82044;SDS011;71615;50.428;8.674;2023-07-20T11:16:38;2.65;;;1.90;;
82044;SDS011;71615;50.428;8.674;2023-07-20T11:21:50;5.15;;;2.58;;
82044;SDS011;71615;50.428;8.674;2023-07-20T11:24:28;3.42;;;2.60;;
82044;SDS011;71615;50.428;8.674;2023-07-20T11:26:54;2.97;;;2.30;;
82044;SDS011;71615;50.428;8.674;2023-07-20T11:29:22;4.45;;;2.85;;
82044;SDS011;71615;50.428;8.674;2023-07-20T11:31:57;3.55;;;2.33;;
82044;SDS011;71615;50.428;8.674;2023-07-20T11:34:27;3.22;;;2.47;;
82044;SDS011;71615;50.428;8.674;2023-07-20T11:36:54;3.78;;;2.60;;
82044;SDS011;71615;50.428;8.674;2023-07-20T11:39:24;3.95;;;2.70;;
82044;SDS011;71615;50.428;8.674;2023-07-20T11:41:57;3.65;;;2.47;;
82044;SDS011;71615;50.428;8.674;2023-07-20T11:44:27;3.70;;;1.95;;
82044;SDS011;71615;50.428;8.674;2023-07-20T11:47:05;3.47;;;2.65;;
82044;SDS011;71615;50.428;8.674;2023-07-20T11:49:40;3.05;;;2.60;;
82044;SDS011;71615;50.428;8.674;2023-07-20T11:52:08;4.15;;;2.95;;
82044;SDS011;71615;50.428;8.674;2023-07-20T11:54:40;3.17;;;2.63;;
82044;SDS011;71615;50.428;8.674;2023-07-20T11:57:17;3.00;;;2.05;;
82044;SDS011;71615;50.428;8.674;2023-07-20T12:02:42;3.58;;;2.90;;
82044;SDS011;71615;50.428;8.674;2023-07-20T12:05:09;2.88;;;2.58;;
82044;SDS011;71615;50.428;8.674;2023-07-20T12:07:39;3.47;;;2.70;;
82044;SDS011;71615;50.428;8.674;2023-07-20T12:10:12;3.70;;;3.03;;
82044;SDS011;71615;50.428;8.674;2023-07-20T12:12:39;3.92;;;2.50;;
82044;SDS011;71615;50.428;8.674;2023-07-20T12:15:25;3.85;;;2.33;;
82044;SDS011;71615;50.428;8.674;2023-07-20T12:17:53;2.53;;;2.28;;
82044;SDS011;71615;50.428;8.674;2023-07-20T12:20:38;3.15;;;2.40;;
82044;SDS011;71615;50.428;8.674;2023-07-20T12:23:09;3.42;;;2.47;;
82044;SDS011;71615;50.428;8.674;2023-07-20T12:25:38;2.75;;;2.20;;
82044;SDS011;71615;50.428;8.674;2023-07-20T12:28:09;3.35;;;2.20;;
82044;SDS011;71615;50.428;8.674;2023-07-20T12:30:42;3.88;;;2.70;;
82044;SDS011;71615;50.428;8.674;2023-07-20T12:33:10;3.40;;;2.58;;
82044;SDS011;71615;50.428;8.674;2023-07-20T12:35:38;3.65;;;2.70;;
82044;SDS011;71615;50.428;8.674;2023-07-20T12:38:04;3.67;;;2.20;;
82044;SDS011;71615;50.428;8.674;2023-07-20T12:40:33;2.88;;;2.47;;
82044;SDS011;71615;50.428;8.674;2023-07-20T12:43:00;3.08;;;2.42;;
82044;SDS011;71615;50.428;8.674;2023-07-20T12:45:27;3.50;;;2.85;;
82044;SDS011;71615;50.428;8.674;2023-07-20T12:47:53;3.22;;;2.28;;
82044;SDS011;71615;50.428;8.674;2023-07-20T12:50:20;2.10;;;1.63;;
82044;SDS011;71615;50.428;8.674;2023-07-20T12:52:46;2.75;;;2.40;;
82044;SDS011;71615;50.428;8.674;2023-07-20T12:55:13;3.80;;;2.80;;
82044;SDS011;71615;50.428;8.674;2023-07-20T12:57:40;3.08;;;2.15;;
82044;SDS011;71615;50.428;8.674;2023-07-20T13:00:09;3.58;;;1.98;;
82044;SDS011;71615;50.428;8.674;2023-07-20T13:02:37;2.53;;;1.70;;
82044;SDS011;71615;50.428;8.674;2023-07-20T13:05:04;2.90;;;2.45;;
82044;SDS011;71615;50.428;8.674;2023-07-20T13:07:35;2.63;;;2.08;;
82044;SDS011;71615;50.428;8.674;2023-07-20T13:10:06;3.40;;;2.42;;
82044;SDS011;71615;50.428;8.674;2023-07-20T13:12:33;3.28;;;2.70;;
82044;SDS011;71615;50.428;8.674;2023-07-20T13:15:02;2.70;;;2.25;;
82044;SDS011;71615;50.428;8.674;2023-07-20T13:17:33;3.15;;;2.85;;
82044;SDS011;71615;50.428;8.674;2023-07-20T13:20:00;3.10;;;2.60;;
82044;SDS011;71615;50.428;8.674;2023-07-20T13:22:26;4.55;;;2.60;;
82044;SDS011;71615;50.428;8.674;2023-07-20T13:24:53;3.17;;;1.88;;
82044;SDS011;71615;50.428;8.674;2023-07-20T13:27:20;4.45;;;3.03;;
82044;SDS011;71615;50.428;8.674;2023-07-20T13:29:46;4.22;;;2.58;;
82044;SDS011;71615;50.428;8.674;2023-07-20T13:32:14;3.22;;;2.40;;
82044;SDS011;71615;50.428;8.674;2023-07-20T13:34:41;3.38;;;2.38;;
82044;SDS011;71615;50.428;8.674;2023-07-20T13:37:08;2.33;;;1.90;;
82044;SDS011;71615;50.428;8.674;2023-07-20T13:39:38;3.10;;;2.60;;
82044;SDS011;71615;50.428;8.674;2023-07-20T13:42:05;3.00;;;2.63;;
82044;SDS011;71615;50.428;8.674;2023-07-20T13:44:32;3.05;;;2.55;;
82044;SDS011;71615;50.428;8.674;2023-07-20T13:46:59;2.90;;;2.20;;
82044;SDS011;71615;50.428;8.674;2023-07-20T13:49:29;3.20;;;2.72;;
82044;SDS011;71615;50.428;8.674;2023-07-20T13:52:02;3.13;;;2.75;;
82044;SDS011;71615;50.428;8.674;2023-07-20T13:54:31;2.70;;;2.33;;
82044;SDS011;71615;50.428;8.674;2023-07-20T13:56:58;3.42;;;2.40;;
82044;SDS011;71615;50.428;8.674;2023-07-20T13:59:25;3.35;;;2.72;;
82044;SDS011;71615;50.428;8.674;2023-07-20T14:01:52;3.35;;;2.67;;
82044;SDS011;71615;50.428;8.674;2023-07-20T14:04:38;14.15;;;3.85;;
